Holmogadd, Sweden

9:19 AM CEST on September 03, 2015 (GMT +0200)
Oston | | Change Station
CLOSE
Current Station
Personal Weather Station
Location: Savar, SAVAR
Elevation: 0 ft
Nearby Weather Stations

Elev 0 ft 63.82 °N, 20.70 °E | Updated 3 minutes ago

Clear
Clear
52.2 °F
Feels Like 52.2 °F
N
2.0
Wind Variable Wind from NE
Gusts 3.0 mph

Today
High -- | Low -- °F
--% Chance of Precip.
Yesterday
High -- | Low -- °F
Precip. -- in
5:25 AM 7:45 PM
Waning Gibbous, 73% visible
Pressure 30.01 in
Visibility -9999.0 miles
Clouds
Dew Point 36 °F
Humidity 54%
Rainfall 0.00 in
Snow Depth Not available.
UV Not available.
Pollen Not available.
Air Quality Not available.
Flu Activity Not available.
METAR ESNU 030650Z 35004KT CAVOK 10/06 Q1016
Pressure 30.01 in
Visibility -9999.0 miles
Clouds
Dew Point 36 °F
Humidity 54%
Rainfall 0.00 in
Snow Depth Not available.
UV Not available.
Pollen Not available.
Air Quality Not available.
Flu Activity Not available.
METAR ESNU 030650Z 35004KT CAVOK 10/06 Q1016

10-Day Weather Forecast

×

Almanac

Astronomy

Sep. 03, 2015 Rise Set
Actual Time
Civil Twilight
Nautical Twilight
Astronomical Twilight
Moon
Length of Visible Light
Length of Day
Tomorrow will be .
, % of the Moon is Illuminated

Today's Extremes

Country Highs Country Lows

Community

WunderPhotos

Upload Photos

1,851,915 photos uploaded!

WunderBlogs® & News

Nearby

Air Quality

  Air Quality AQ Index Pollutant
Not available.

Snow Depth

Station Depth Elevation

Earthquake Activity

City Distance Mag. Time & Date
Minimum magnitude displayed is 2.5.

Coastal Water Temperatures

Place Temperature

Stations

Nearby Weather Stations

Station Location Temp. Windchill Dew Point Humidity Wind Precip. Elev Updated Type